Vancouver, WA (98685)

4:20 PM PST on December 27, 2014 (GMT -0800)
Whipple Creek Place Salmon Creek | Change Station
CLOSE
Current Station
Personal Weather Station
Location: Vancouver, WA
Elevation: 186 ft
Nearby Weather Stations

Elev 186 ft 45.73 °N, 122.67 °W | Updated 6 minutes ago

Overcast
Overcast
44.1 °F
Feels Like 44 °F
N
0.0
Wind Variable Wind from SE
Gusts 3.0 mph

Today
High -- | Low -- °F
--% Chance of Precip.
Yesterday
High -- | Low -- °F
Precip. -- in
7:50 AM 4:33 PM
Waxing Crescent, 41% visible
Pressure 30.18 in
Visibility 10.0 miles
Clouds Few 1000 ft
Mostly Cloudy 3800 ft
Overcast 8000 ft
Windchill 44 °F
Dew Point 43 °F
Humidity 97%
Rainfall 0.13 in
Snow Depth Not available.
UV 0 out of 12
Pollen .20 out of 12
Air Quality Not available.
Flu Activity Not available.
SPECI KVUO 280001Z AUTO 11004KT 10SM FEW010 BKN038 OVC080 07/05 A3018 RMK AO2 T00720050

More Conditions Fewer Conditions

Pressure 30.18 in
Visibility 10.0 miles
Clouds Few 1000 ft
Mostly Cloudy 3800 ft
Overcast 8000 ft
Windchill 44 °F
Dew Point 43 °F
Humidity 97%
Rainfall 0.13 in
Snow Depth Not available.
UV 0 out of 12
Pollen .20 out of 12
Air Quality Not available.
Flu Activity Not available.
SPECI KVUO 280001Z AUTO 11004KT 10SM FEW010 BKN038 OVC080 07/05 A3018 RMK AO2 T00720050

More Conditions Fewer Conditions

10-Day Weather Forecast

Almanac

Astronomy

Dec. 27, 2014 Rise Set
Actual Time
Civil Twilight
Nautical Twilight
Astronomical Twilight
Moon
Length of Visible Light
Length of Day
Tomorrow will be .
, % of the Moon is Illuminated

Today's Extremes

State Highs State Lows

Community

WunderPhotos

Upload Photos

1,781,116 photos uploaded!

WunderBlogs® & News

Nearby

Air Quality

  Air Quality AQ Index Pollutant
Not available.

Snow Depth

Station Depth Elevation

Earthquake Activity

City Distance Mag. Time & Date
Minimum magnitude displayed is 2.5.

Coastal Water Temperatures

Place Temperature

Nearby Weather Stations